Time;durP1;ratioP1;P1;durP2;ratioP2;P2;SDS_P1;SDS_P2;PMS_P1;PMS_P2;Temp;Humidity;BMP_temperature;BMP_pressure;BME280_temperature;BME280_humidity;BME280_pressure;Samples;Min_cycle;Max_cycle;Signal;HPM_P1;HPM_P2
2023/07/27 00:06:06;;;;;;;;;;;;;;;;;;;;;
2023/07/27 00:08:03;;;;;;;;;;;;;;;15.85;64.15;99687.38;1087936;47;19939;-84
2023/07/27 00:09:38;;;;;;;;;;;;;;;15.86;64.32;99697.94;1087957;54;19950;-83
2023/07/27 00:11:08;;;;;;;;;;;;;;;15.89;64.30;99686.81;1087780;54;19923;-83
2023/07/27 00:12:22;;;;;;;;;;;;;;;15.90;64.12;99682.22;1087796;54;19950;-82
2023/07/27 00:13:30;;;;;;;;;;;;;;;15.87;64.25;99683.44;1087473;47;19972;-83
2023/07/27 00:20:05;;;;;;;;;;;;;;;15.92;63.74;99679.38;1087723;54;19938;-83
2023/07/27 00:21:07;;;;;;;;;;;;;;;15.88;63.80;99679.72;1087594;54;20006;-83
2023/07/27 00:22:12;;;;;;;;;;;;;;;15.89;63.94;99680.56;1087745;54;19970;-83
2023/07/27 00:23:25;;;;;;;;;;;;;;;15.86;63.69;99675.56;1087695;54;19939;-83
2023/07/27 00:28:15;;;;;;;;;;;;;;;15.83;63.59;99671.31;1087738;54;19915;-83
2023/07/27 00:29:21;;;;;;;;;;;;;;;15.85;63.96;99669.31;1087655;54;19943;-83
2023/07/27 00:30:52;;;;;;;;;;;;;;;15.89;63.99;99669.78;1087487;47;20059;-83
2023/07/27 00:32:17;;;;;;;;;;;;;;;15.90;63.81;99663.38;1087639;47;19949;-83
2023/07/27 00:33:48;;;;;;;;;;;;;;;15.94;63.64;99661.13;1087641;54;19999;-83
2023/07/27 00:34:52;;;;;;;;;;;;;;;15.93;63.69;99660.31;1087816;47;19945;-83
2023/07/27 00:37:54;;;;;;;;;;;;;;;15.94;63.41;99661.97;1088053;54;19939;-83
2023/07/27 00:38:58;;;;;;;;;;;;;;;15.95;63.55;99662.78;1087888;47;19943;-83
2023/07/27 00:41:27;;;;;;;;;;;;;;;15.90;63.48;99666.06;1087712;54;19954;-82
2023/07/27 00:42:28;;;;;;;;;;;;;;;15.91;63.66;99656.94;1087539;51;19954;-82
2023/07/27 00:43:34;;;;;;;;;;;;;;;15.91;63.57;99656.94;1087840;54;19949;-83
2023/07/27 00:44:38;;;;;;;;;;;;;;;15.91;63.46;99656.94;1087925;54;19949;-83
2023/07/27 00:45:43;;;;;;;;;;;;;;;15.93;63.37;99654.91;1087657;47;19973;-82
2023/07/27 00:46:45;;;;;;;;;;;;;;;15.91;63.02;99656.94;1087704;47;19954;-82
2023/07/27 00:47:53;;;;;;;;;;;;;;;15.94;63.19;99661.97;1087714;46;20656;-83
2023/07/27 00:48:56;;;;;;;;;;;;;;;15.95;63.16;99657.41;1087863;54;19975;-83
2023/07/27 00:50:01;;;;;;;;;;;;;;;15.96;63.18;99648.28;1087858;47;19967;-82
2023/07/27 00:51:03;;;;;;;;;;;;;;;15.95;63.27;99644.78;1087738;47;19943;-82
2023/07/27 00:52:32;;;;;;;;;;;;;;;15.98;62.93;99646.25;1087826;47;19969;-84
2023/07/27 00:53:57;;;;;;;;;;;;;;;;;;;;;
2023/07/27 00:58:37;;;;;;;;;;;;;;;15.95;63.08;99642.09;1088245;54;19943;-83
2023/07/27 00:59:48;;;;;;;;;;;;;;;15.95;62.95;99634.00;1088109;54;19943;-82
2023/07/27 01:00:55;;;;;;;;;;;;;;;15.94;63.28;99639.56;1087812;47;19991;-83
2023/07/27 01:02:08;;;;;;;;;;;;;;;15.90;62.98;99639.09;1087850;47;19943;-82
2023/07/27 01:09:46;;;;;;;;;;;;;;;15.94;63.29;99632.31;1087824;54;19938;-83
2023/07/27 01:12:47;;;;;;;;;;;;;;;15.93;63.02;99633.34;1087696;47;19960;-82
2023/07/27 01:13:59;;;;;;;;;;;;;;;15.95;63.17;99631.31;1087633;47;19975;-83
2023/07/27 01:17:25;;;;;;;;;;;;;;;15.89;62.93;99630.19;1087715;54;19961;-83
2023/07/27 01:18:58;;;;;;;;;;;;;;;;;;;;;
2023/07/27 01:21:58;;;;;;;;;;;;;;;15.89;62.86;99618.56;1087736;54;19946;-82
2023/07/27 01:23:16;;;;;;;;;;;;;;;15.91;62.83;99613.81;1087786;47;19958;-82
2023/07/27 01:25:00;;;;;;;;;;;;;;;15.90;62.90;99607.63;1087513;54;19942;-83
2023/07/27 01:26:25;;;;;;;;;;;;;;;15.89;62.88;99605.94;1087754;47;19943;-82
2023/07/27 01:27:54;;;;;;;;;;;;;;;15.89;63.15;99599.69;1087539;54;19942;-84
2023/07/27 01:29:06;;;;;;;;;;;;;;;15.91;62.93;99600.34;1087782;54;19943;-83
2023/07/27 01:30:24;;;;;;;;;;;;;;;15.91;62.85;99597.66;1087806;39;20220;-83
2023/07/27 01:31:44;;;;;;;;;;;;;;;15.91;62.93;99608.44;1087675;54;20684;-82
2023/07/27 01:33:15;;;;;;;;;;;;;;;15.89;62.41;99603.25;1087620;47;19925;-82
2023/07/27 01:34:18;;;;;;;;;;;;;;;15.92;62.98;99598.50;1087480;47;19942;-82
2023/07/27 01:35:34;;;;;;;;;;;;;;;15.89;62.73;99600.53;1087704;47;19949;-82
2023/07/27 01:36:59;;;;;;;;;;;;;;;15.87;62.90;99596.38;1087660;54;19958;-83
2023/07/27 01:38:10;;;;;;;;;;;;;;;15.85;62.67;99593.84;1087820;54;19927;-82
2023/07/27 01:39:21;;;;;;;;;;;;;;;15.89;62.95;99600.53;1087764;47;19942;-83
2023/07/27 01:45:30;;;;;;;;;;;;;;;15.84;62.85;99591.34;1087827;54;19931;-83
2023/07/27 01:46:45;;;;;;;;;;;;;;;15.81;62.93;99587.16;1087711;54;19951;-83
2023/07/27 01:48:16;;;;;;;;;;;;;;;15.86;62.76;99589.31;1087797;54;19939;-84
2023/07/27 01:51:27;;;;;;;;;;;;;;;15.77;62.81;99587.72;1087957;54;19939;-83
2023/07/27 01:59:02;;;;;;;;;;;;;;;15.66;62.98;99589.88;1087670;54;19938;-82
2023/07/27 02:00:10;;;;;;;;;;;;;;;15.64;63.42;99591.06;1087905;54;20011;-84
2023/07/27 02:01:47;;;;;;;;;;;;;;;;;;;;;
2023/07/27 02:03:01;;;;;;;;;;;;;;;15.62;63.43;99582.38;1087575;47;19942;-82
2023/07/27 02:04:22;;;;;;;;;;;;;;;15.57;63.84;99580.25;1087580;46;19998;-80
2023/07/27 02:05:24;;;;;;;;;;;;;;;15.59;63.42;99578.19;1087782;46;19958;-84
2023/07/27 02:06:39;;;;;;;;;;;;;;;15.60;63.32;99582.53;1087487;54;19943;-82
2023/07/27 02:07:45;;;;;;;;;;;;;;;15.60;63.53;99579.84;1087637;47;19943;-81
2023/07/27 02:08:58;;;;;;;;;;;;;;;15.60;63.42;99580.69;1087643;54;19973;-82
2023/07/27 02:10:24;;;;;;;;;;;;;;;15.65;63.42;99576.59;1087494;54;19967;-83
2023/07/27 02:11:43;;;;;;;;;;;;;;;15.64;63.35;99578.47;1087439;47;19998;-84
2023/07/27 02:12:53;;;;;;;;;;;;;;;15.62;62.97;99583.19;1087443;47;20012;-84
2023/07/27 02:14:00;;;;;;;;;;;;;;;15.65;63.29;99574.75;1087387;47;20011;-82
2023/07/27 02:15:07;;;;;;;;;;;;;;;15.65;63.06;99577.44;1087249;47;19963;-84
2023/07/27 02:16:14;;;;;;;;;;;;;;;15.66;62.85;99562.94;1087278;54;19949;-83
2023/07/27 02:17:18;;;;;;;;;;;;;;;15.68;62.90;99574.34;1087325;54;19975;-82
2023/07/27 02:18:26;;;;;;;;;;;;;;;15.69;63.04;99572.50;1087303;47;19938;-83
2023/07/27 02:19:37;;;;;;;;;;;;;;;15.67;62.88;99564.63;1087066;54;19943;-82
2023/07/27 02:20:43;;;;;;;;;;;;;;;15.66;62.72;99572.88;1087299;54;19950;-83
2023/07/27 02:21:45;;;;;;;;;;;;;;;15.66;62.88;99568.34;1087076;54;19950;-82
2023/07/27 02:22:50;;;;;;;;;;;;;;;15.54;62.99;99565.28;1087061;54;19957;-82
2023/07/27 02:23:58;;;;;;;;;;;;;;;15.55;63.25;99566.13;1087281;47;19950;-82
2023/07/27 02:25:03;;;;;;;;;;;;;;;15.57;63.28;99564.91;1087334;47;19939;-83
2023/07/27 02:26:04;;;;;;;;;;;;;;;15.60;62.97;99563.69;1087081;47;19926;-81
2023/07/27 02:27:08;;;;;;;;;;;;;;;15.57;62.95;99556.81;1087311;47;19983;-82
2023/07/27 02:28:13;;;;;;;;;;;;;;;15.58;63.19;99555.81;1087086;46;20005;-84
2023/07/27 02:29:18;;;;;;;;;;;;;;;15.61;63.20;99562.66;1087226;47;19938;-83
2023/07/27 02:30:19;;;;;;;;;;;;;;;15.60;62.86;99552.91;1087390;47;20002;-83
2023/07/27 02:31:23;;;;;;;;;;;;;;;15.59;63.21;99557.47;1087776;39;20606;-83
2023/07/27 02:32:45;;;;;;;;;;;;;;;15.59;63.01;99551.22;1087396;47;19950;-83
2023/07/27 02:34:03;;;;;;;;;;;;;;;15.59;63.21;99545.84;1087560;54;19933;-83
2023/07/27 02:35:20;;;;;;;;;;;;;;;15.54;63.06;99545.59;1087238;47;19946;-83
2023/07/27 02:36:40;;;;;;;;;;;;;;;15.51;63.18;99541.44;1089099;39;20261;-83
2023/07/27 02:37:48;;;;;;;;;;;;;;;15.50;63.11;99552.38;1087309;47;19945;-82
2023/07/27 02:39:02;;;;;;;;;;;;;;;;;;;;;
2023/07/27 02:40:17;;;;;;;;;;;;;;;15.54;63.08;99545.59;1087338;47;19942;-83
2023/07/27 02:41:52;;;;;;;;;;;;;;;15.57;63.24;99537.16;1087512;54;19933;-82
2023/07/27 02:43:03;;;;;;;;;;;;;;;15.54;63.12;99537.50;1087613;47;19939;-85
2023/07/27 02:44:27;;;;;;;;;;;;;;;15.56;63.05;99530.09;1087553;47;19938;-82
2023/07/27 02:45:34;;;;;;;;;;;;;;;15.57;63.22;99537.97;1087401;47;19931;-83
2023/07/27 02:46:42;;;;;;;;;;;;;;;15.59;62.78;99525.16;1087376;47;19939;-84
2023/07/27 02:47:48;;;;;;;;;;;;;;;15.59;62.89;99533.22;1087220;47;19946;-83
2023/07/27 02:50:29;;;;;;;;;;;;;;;15.59;62.96;99529.69;1086859;47;19938;-82
2023/07/27 02:52:05;;;;;;;;;;;;;;;15.61;62.92;99527.63;1086901;54;19950;-82
2023/07/27 02:53:09;;;;;;;;;;;;;;;15.58;62.75;99528.88;1086860;46;19927;-83
2023/07/27 02:54:15;;;;;;;;;;;;;;;15.58;63.07;99528.88;1086945;54;19955;-81
2023/07/27 02:55:21;;;;;;;;;;;;;;;15.60;62.82;99536.75;1086927;47;19950;-82
2023/07/27 02:56:22;;;;;;;;;;;;;;;15.60;62.75;99531.34;1087028;47;19947;-82
2023/07/27 02:57:30;;;;;;;;;;;;;;;15.53;62.98;99535.84;1088612;31;20761;-82
2023/07/27 02:58:34;;;;;;;;;;;;;;;15.55;62.92;99525.72;1087156;47;19943;-82
2023/07/27 02:59:40;;;;;;;;;;;;;;;15.58;62.64;99528.03;1087032;47;19950;-82
2023/07/27 03:00:49;;;;;;;;;;;;;;;15.59;62.63;99532.38;1087005;54;19943;-84
2023/07/27 03:01:53;;;;;;;;;;;;;;;15.63;62.62;99532.84;1087124;54;19949;-82
2023/07/27 03:03:03;;;;;;;;;;;;;;;15.55;63.17;99528.41;1087169;47;19948;-82
2023/07/27 03:04:07;;;;;;;;;;;;;;;15.54;63.21;99543.72;1087090;47;19942;-82
2023/07/27 03:05:11;;;;;;;;;;;;;;;15.58;63.05;99539.63;1087148;54;19951;-82
2023/07/27 03:06:15;;;;;;;;;;;;;;;15.55;62.70;99536.50;1087224;47;19975;-83
2023/07/27 03:07:49;;;;;;;;;;;;;;;;;;;;;
2023/07/27 03:09:01;;;;;;;;;;;;;;;15.59;62.76;99532.38;1087063;47;19942;-83
2023/07/27 03:10:05;;;;;;;;;;;;;;;15.59;62.69;99535.94;1087117;47;19959;-83
2023/07/27 03:11:16;;;;;;;;;;;;;;;15.62;62.54;99540.09;1087077;54;19968;-83
2023/07/27 03:12:24;;;;;;;;;;;;;;;15.60;62.58;99531.34;1087222;47;19943;-83
2023/07/27 03:13:29;;;;;;;;;;;;;;;15.63;62.67;99531.00;1087169;54;19973;-82
2023/07/27 03:14:35;;;;;;;;;;;;;;;15.63;62.41;99532.84;1087124;47;19942;-83
2023/07/27 03:15:45;;;;;;;;;;;;;;;15.65;62.60;99539.72;1087250;47;19954;-83
2023/07/27 03:16:50;;;;;;;;;;;;;;;15.65;62.52;99534.34;1087171;47;19994;-83
2023/07/27 03:17:59;;;;;;;;;;;;;;;15.62;62.66;99534.69;1088706;39;20204;-85
2023/07/27 03:19:02;;;;;;;;;;;;;;;15.64;62.64;99531.81;1087228;54;19950;-83
2023/07/27 03:20:07;;;;;;;;;;;;;;;15.65;62.77;99533.47;1087179;54;19973;-83
2023/07/27 03:21:08;;;;;;;;;;;;;;;15.68;62.29;99533.09;1086912;47;19951;-82
2023/07/27 03:22:28;;;;;;;;;;;;;;;15.72;62.22;99529.03;1087303;54;19966;-82
2023/07/27 03:23:33;;;;;;;;;;;;;;;15.70;62.22;99531.88;1087295;54;19966;-83
2023/07/27 03:24:59;;;;;;;;;;;;;;;;;;;;;
2023/07/27 03:26:10;;;;;;;;;;;;;;;15.74;62.17;99533.19;1087373;54;19954;-82
2023/07/27 03:27:25;;;;;;;;;;;;;;;15.72;62.13;99529.03;1087387;47;19978;-84
2023/07/27 03:30:05;;;;;;;;;;;;;;;15.71;62.44;99538.13;1087388;47;19947;-84
2023/07/27 03:31:16;;;;;;;;;;;;;;;15.71;62.22;99540.81;1087201;54;19970;-83
2023/07/27 03:32:20;;;;;;;;;;;;;;;15.73;62.55;99530.66;1087169;47;19943;-82
2023/07/27 03:33:22;;;;;;;;;;;;;;;15.73;62.32;99531.50;1087519;54;19938;-82
2023/07/27 03:34:26;;;;;;;;;;;;;;;15.75;62.33;99534.00;1087821;47;19939;-83
2023/07/27 03:35:54;;;;;;;;;;;;;;;15.76;62.38;99530.28;1087597;47;20031;-83
2023/07/27 03:36:59;;;;;;;;;;;;;;;15.75;62.48;99528.63;1087883;54;19943;-84
2023/07/27 03:38:04;;;;;;;;;;;;;;;15.74;62.52;99530.50;1088061;54;19946;-83
2023/07/27 03:39:08;;;;;;;;;;;;;;;15.72;62.27;99529.84;1087419;47;19942;-82
2023/07/27 03:40:12;;;;;;;;;;;;;;;15.74;62.28;99527.81;1087494;54;19942;-83
2023/07/27 03:41:16;;;;;;;;;;;;;;;15.75;61.85;99529.47;1087829;54;19946;-81
2023/07/27 03:42:44;;;;;;;;;;;;;;;15.75;62.05;99523.22;1087627;47;19979;-83
2023/07/27 03:44:05;;;;;;;;;;;;;;;15.68;62.09;99520.47;1087764;47;19965;-84
2023/07/27 03:45:16;;;;;;;;;;;;;;;15.77;61.98;99523.88;1087700;47;19943;-84
2023/07/27 03:46:25;;;;;;;;;;;;;;;15.75;61.81;99512.44;1087705;47;19954;-82
2023/07/27 03:47:31;;;;;;;;;;;;;;;15.76;62.12;99519.50;1087592;47;19963;-83
2023/07/27 03:48:46;;;;;;;;;;;;;;;15.81;61.74;99516.25;1087690;54;20018;-84
2023/07/27 03:50:10;;;;;;;;;;;;;;;15.78;61.81;99513.91;1087679;46;19943;-83
2023/07/27 03:51:11;;;;;;;;;;;;;;;15.77;61.54;99523.06;1087709;47;19967;-83
2023/07/27 03:53:35;;;;;;;;;;;;;;;15.77;61.53;99515.78;1087650;47;19999;-83
2023/07/27 03:54:37;;;;;;;;;;;;;;;15.78;61.42;99512.06;1087669;54;19950;-83
2023/07/27 03:55:52;;;;;;;;;;;;;;;15.81;61.50;99503.63;1087589;47;20035;-83
2023/07/27 03:56:56;;;;;;;;;;;;;;;15.77;61.67;99509.59;1087630;47;19954;-83
2023/07/27 03:57:59;;;;;;;;;;;;;;;15.77;61.67;99512.28;1087773;47;19958;-81
2023/07/27 03:59:00;;;;;;;;;;;;;;;15.82;61.35;99505.25;1087942;54;20011;-83
2023/07/27 04:00:22;;;;;;;;;;;;;;;15.83;61.54;99509.63;1087806;47;19942;-83
2023/07/27 04:01:33;;;;;;;;;;;;;;;15.80;61.57;99498.41;1087663;47;19942;-80
2023/07/27 04:02:41;;;;;;;;;;;;;;;15.82;61.56;99501.75;1087577;54;19943;-81
2023/07/27 04:03:44;;;;;;;;;;;;;;;15.81;61.62;99500.06;1087646;47;19974;-82
2023/07/27 04:04:49;;;;;;;;;;;;;;;15.81;61.73;99498.22;1089984;39;20199;-83
2023/07/27 04:05:57;;;;;;;;;;;;;;;15.81;61.30;99498.22;1087563;47;19942;-84
2023/07/27 04:07:03;;;;;;;;;;;;;;;15.74;61.74;99498.16;1087986;54;19975;-82
2023/07/27 04:08:06;;;;;;;;;;;;;;;15.80;61.23;99493.00;1087864;54;19958;-80
2023/07/27 04:09:19;;;;;;;;;;;;;;;15.85;61.58;99501.41;1087847;54;19942;-83
2023/07/27 04:10:24;;;;;;;;;;;;;;;15.83;61.34;99488.06;1087684;54;19942;-83
2023/07/27 04:11:29;;;;;;;;;;;;;;;15.85;61.37;99487.94;1087606;54;19943;-82
2023/07/27 04:12:31;;;;;;;;;;;;;;;15.89;61.19;99489.19;1087659;46;19950;-84
2023/07/27 04:13:37;;;;;;;;;;;;;;;15.92;61.34;99479.91;1087706;54;19946;-81
2023/07/27 04:14:45;;;;;;;;;;;;;;;15.89;61.40;99486.50;1087676;47;19950;-83
2023/07/27 04:15:50;;;;;;;;;;;;;;;15.86;61.22;99493.13;1087796;54;19942;-83
2023/07/27 04:17:15;;;;;;;;;;;;;;;15.91;61.16;99484.44;1087956;54;19949;-83
2023/07/27 04:18:29;;;;;;;;;;;;;;;15.91;61.09;99481.75;1087787;54;19942;-82
2023/07/27 04:19:38;;;;;;;;;;;;;;;15.89;61.10;99489.19;1087543;47;19951;-81
2023/07/27 04:20:50;;;;;;;;;;;;;;;15.90;60.98;99482.78;1087888;54;19943;-83
2023/07/27 04:22:04;;;;;;;;;;;;;;;15.89;61.03;99489.19;1087605;54;19957;-82
2023/07/27 04:23:23;;;;;;;;;;;;;;;15.87;61.08;99489.41;1087925;54;19954;-83
2023/07/27 04:24:57;;;;;;;;;;;;;;;15.84;61.63;99489.78;1087758;46;19939;-83
2023/07/27 04:26:01;;;;;;;;;;;;;;;15.84;61.24;99488.94;1089403;39;20718;-82
2023/07/27 04:27:11;;;;;;;;;;;;;;;15.86;61.23;99482.34;1087574;54;19994;-83
2023/07/27 04:28:16;;;;;;;;;;;;;;;15.89;61.56;99481.09;1087700;47;20710;-82
2023/07/27 04:31:47;;;;;;;;;;;;;;;15.89;61.44;99486.50;1087582;54;19950;-82
2023/07/27 04:32:48;;;;;;;;;;;;;;;15.89;61.60;99475.72;1087445;54;19939;-83
2023/07/27 04:33:55;;;;;;;;;;;;;;;15.91;61.67;99476.38;1087401;54;20792;-83
2023/07/27 04:34:57;;;;;;;;;;;;;;;15.94;61.69;99484.06;1087276;47;19946;-82
2023/07/27 04:37:26;;;;;;;;;;;;;;;15.95;61.53;99474.97;1087374;46;19930;-80
2023/07/27 04:38:55;;;;;;;;;;;;;;;15.94;61.77;99473.28;1087264;47;20037;-80
2023/07/27 04:41:25;;;;;;;;;;;;;;;15.96;61.31;99471.25;1087378;47;19969;-81
2023/07/27 04:42:29;;;;;;;;;;;;;;;15.93;61.37;99474.31;1087378;47;19943;-81
2023/07/27 04:43:44;;;;;;;;;;;;;;;15.96;61.65;99475.78;1087456;47;19952;-84
2023/07/27 04:44:45;;;;;;;;;;;;;;;15.96;61.28;99473.94;1087558;54;19954;-83
2023/07/27 04:45:55;;;;;;;;;;;;;;;15.98;61.32;99479.94;1087100;47;19967;-81
2023/07/27 04:47:11;;;;;;;;;;;;;;;15.99;61.33;99478.91;1087316;47;19963;-81
2023/07/27 04:48:42;;;;;;;;;;;;;;;16.00;61.48;99474.38;1087284;47;19946;-81
2023/07/27 04:49:45;;;;;;;;;;;;;;;15.93;61.79;99474.31;1087446;54;19949;-83
2023/07/27 04:50:54;;;;;;;;;;;;;;;15.95;61.56;99472.25;1087444;47;19945;-83
2023/07/27 04:51:57;;;;;;;;;;;;;;;15.96;61.58;99471.25;1087497;54;19976;-83
2023/07/27 04:53:04;;;;;;;;;;;;;;;15.97;61.45;99472.88;1087785;54;20003;-82
2023/07/27 04:54:06;;;;;;;;;;;;;;;16.01;61.60;99467.97;1087959;54;19946;-83
2023/07/27 04:55:20;;;;;;;;;;;;;;;16.03;61.52;99479.34;1087942;54;19954;-84
2023/07/27 04:56:21;;;;;;;;;;;;;;;16.01;61.19;99470.66;1087984;54;19954;-83
2023/07/27 04:57:33;;;;;;;;;;;;;;;16.01;61.08;99479.56;1088044;47;19942;-83
2023/07/27 04:58:33;;;;;;;;;;;;;;;16.00;61.30;99471.69;1087459;47;19942;-83
2023/07/27 04:59:37;;;;;;;;;;;;;;;16.03;61.56;99472.13;1087555;54;20030;-83
2023/07/27 05:00:38;;;;;;;;;;;;;;;16.03;61.48;99472.13;1087185;46;19946;-83
2023/07/27 05:01:45;;;;;;;;;;;;;;;16.04;61.52;99468.41;1087432;54;19947;-83
2023/07/27 05:02:47;;;;;;;;;;;;;;;16.04;61.16;99476.50;1087317;54;19998;-83
2023/07/27 05:03:52;;;;;;;;;;;;;;;16.08;61.37;99476.09;1087387;54;19942;-83
2023/07/27 05:04:56;;;;;;;;;;;;;;;16.08;61.34;99474.22;1087310;47;20014;-83
2023/07/27 05:05:58;;;;;;;;;;;;;;;16.09;61.00;99477.75;1087255;54;19966;-83
2023/07/27 05:07:06;;;;;;;;;;;;;;;16.12;61.44;99480.88;1087524;54;20027;-83
2023/07/27 05:08:12;;;;;;;;;;;;;;;16.12;61.16;99480.88;1087578;47;19966;-84
2023/07/27 05:09:17;;;;;;;;;;;;;;;16.18;61.33;99481.97;1087474;54;19998;-82
2023/07/27 05:10:38;;;;;;;;;;;;;;;16.15;61.06;99471.59;1087562;47;19959;-83
2023/07/27 05:11:44;;;;;;;;;;;;;;;16.15;60.89;99474.28;1087573;47;19974;-83
2023/07/27 05:12:47;;;;;;;;;;;;;;;16.03;61.46;99472.13;1087647;54;19973;-82
2023/07/27 05:15:17;;;;;;;;;;;;;;;16.14;61.10;99470.75;1088478;39;20314;-83
2023/07/27 05:16:18;;;;;;;;;;;;;;;16.20;61.09;99475.34;1091085;39;20654;-82
2023/07/27 05:17:22;;;;;;;;;;;;;;;16.23;61.36;99471.44;1087563;54;19942;-83
2023/07/27 05:18:23;;;;;;;;;;;;;;;16.25;61.13;99472.06;1087777;54;19954;-82
2023/07/27 05:19:27;;;;;;;;;;;;;;;16.29;60.87;99467.97;1087526;47;19961;-83
2023/07/27 05:20:32;;;;;;;;;;;;;;;16.30;60.79;99476.88;1087520;47;19942;-82
2023/07/27 05:21:36;;;;;;;;;;;;;;;16.31;60.85;99467.75;1087508;54;19966;-82
2023/07/27 05:22:38;;;;;;;;;;;;;;;16.34;60.74;99475.47;1087439;47;19942;-81
2023/07/27 05:23:46;;;;;;;;;;;;;;;16.38;60.62;99469.47;1087382;47;19950;-82
2023/07/27 05:24:52;;;;;;;;;;;;;;;16.40;60.66;99476.53;1087606;54;19943;-83
2023/07/27 05:25:58;;;;;;;;;;;;;;;16.40;60.74;99471.97;1087329;47;19943;-83
2023/07/27 05:26:59;;;;;;;;;;;;;;;16.43;60.48;99470.75;1087406;47;19949;-82
2023/07/27 05:28:03;;;;;;;;;;;;;;;16.47;60.25;99472.03;1087478;47;19943;-83
2023/07/27 05:29:04;;;;;;;;;;;;;;;16.48;60.51;99471.00;1087397;47;19975;-83
2023/07/27 05:31:52;;;;;;;;;;;;;;;16.52;60.37;99466.88;1087109;47;19926;-82
2023/07/27 05:32:53;;;;;;;;;;;;;;;16.51;60.13;99467.91;1087590;54;19942;-81
2023/07/27 05:34:01;;;;;;;;;;;;;;;16.45;60.37;99469.53;1087585;47;19943;-83
2023/07/27 05:35:04;;;;;;;;;;;;;;;16.52;60.29;99474.97;1087507;54;19943;-82
2023/07/27 05:36:11;;;;;;;;;;;;;;;16.56;60.06;99473.53;1087456;47;19927;-84
2023/07/27 05:37:12;;;;;;;;;;;;;;;16.56;59.97;99481.63;1087289;47;19949;-82
2023/07/27 05:38:23;;;;;;;;;;;;;;;16.61;59.77;99478.34;1087474;54;19950;-82
2023/07/27 05:39:30;;;;;;;;;;;;;;;16.63;59.89;99473.56;1087519;47;19939;-82
2023/07/27 05:40:49;;;;;;;;;;;;;;;16.67;59.87;99482.97;1087577;47;19942;-82
2023/07/27 05:42:06;;;;;;;;;;;;;;;16.69;59.86;99484.41;1087584;54;19942;-84
2023/07/27 05:43:12;;;;;;;;;;;;;;;16.63;60.01;99476.28;1087674;54;19954;-83
2023/07/27 05:44:15;;;;;;;;;;;;;;;16.75;59.62;99479.25;1087491;47;19966;-83
2023/07/27 05:45:19;;;;;;;;;;;;;;;16.81;59.74;99473.06;1089497;39;20161;-82
2023/07/27 05:46:54;;;;;;;;;;;;;;;;;;;;;
2023/07/27 05:48:09;;;;;;;;;;;;;;;16.88;59.53;99478.47;1087643;54;19990;-82
2023/07/27 05:49:10;;;;;;;;;;;;;;;16.86;59.22;99470.59;1087506;47;19942;-83
2023/07/27 05:50:25;;;;;;;;;;;;;;;16.88;59.50;99473.94;1087511;54;20034;-82
2023/07/27 05:51:27;;;;;;;;;;;;;;;16.96;59.57;99473.78;1087321;47;19954;-82
2023/07/27 05:52:33;;;;;;;;;;;;;;;16.95;59.24;99469.41;1087464;47;20016;-82
2023/07/27 05:53:34;;;;;;;;;;;;;;;16.99;59.22;99465.28;1087595;47;20007;-81
2023/07/27 05:54:40;;;;;;;;;;;;;;;17.03;58.85;99464.88;1087573;54;19938;-83
2023/07/27 05:55:41;;;;;;;;;;;;;;;17.06;59.21;99469.88;1087577;47;19939;-82
2023/07/27 05:56:51;;;;;;;;;;;;;;;17.12;59.08;99469.06;1087413;47;19945;-84
2023/07/27 06:00:20;;;;;;;;;;;;;;;17.08;59.11;99478.63;1088061;54;19938;-82
2023/07/27 06:01:45;;;;;;;;;;;;;;;17.15;58.97;99471.38;1087385;47;19939;-84
2023/07/27 06:02:50;;;;;;;;;;;;;;;17.19;59.12;99469.94;1087446;47;19966;-82
2023/07/27 06:03:51;;;;;;;;;;;;;;;17.24;58.94;99469.34;1087408;47;19982;-83
2023/07/27 06:06:24;;;;;;;;;;;;;;;17.25;59.01;99458.31;1087268;54;20023;-82
2023/07/27 06:08:02;;;;;;;;;;;;;;;17.20;58.91;99466.19;1087431;47;19934;-85
2023/07/27 06:09:14;;;;;;;;;;;;;;;17.23;59.16;99463.09;1087748;47;19926;-83
2023/07/27 13:21:25;;;;;;;;;;;;;;;19.93;70.65;99187.66;1087988;54;19971;-85
